Morioka, Japan
Current Conditions -  °F | °C
As of 9:00 AM on Wednesday 22 Oct 2014 (Local Time) from RJSI Reporting Station
Broken Clouds Broken Clouds  
Wind Chill: 52°   Ceiling: 8000
Heat Index: 52°   Visibility: 6mi
Dew Point: 43°   Wind: 8mph
Humidity: 71%   Direction: 350°N
Pressure: 30"   Gusts: NA
Location:  39.7°N, 141.15°E
Report Text: RJSI 220000Z 35007KT 310V030 9999 FEW010 SCT035 BKN080 11/06 Q1016
Loading
Personal Weather Stations






























Interactive Weather Map
Tropical Storm Tracking
New forecast layout! Learn more

10-Day Weather Forecast

Advertisements
Track Severe Weather on mobile